sensor_id;sensor_type;location;lat;lon;timestamp;pressure;altitude;pressure_sealevel;temperature;humidity
62928;BME280;51070;52.236;-0.892;2023-07-30T00:02:17;99896.13;;;15.53;73.47
62928;BME280;51070;52.236;-0.892;2023-07-30T00:04:44;99894.55;;;15.53;73.53
62928;BME280;51070;52.236;-0.892;2023-07-30T00:07:10;99901.15;;;15.51;73.75
62928;BME280;51070;52.236;-0.892;2023-07-30T00:09:36;99902.88;;;15.50;74.34
62928;BME280;51070;52.236;-0.892;2023-07-30T00:12:03;99896.97;;;15.47;74.83
62928;BME280;51070;52.236;-0.892;2023-07-30T00:14:28;99898.53;;;15.45;74.99
62928;BME280;51070;52.236;-0.892;2023-07-30T00:16:54;99902.88;;;15.45;74.92
62928;BME280;51070;52.236;-0.892;2023-07-30T00:19:19;99896.63;;;15.42;75.13
62928;BME280;51070;52.236;-0.892;2023-07-30T00:21:44;99897.66;;;15.41;75.13
62928;BME280;51070;52.236;-0.892;2023-07-30T00:24:12;99896.95;;;15.39;75.05
62928;BME280;51070;52.236;-0.892;2023-07-30T00:26:38;99897.83;;;15.39;75.21
62928;BME280;51070;52.236;-0.892;2023-07-30T00:29:03;99894.02;;;15.38;75.45
62928;BME280;51070;52.236;-0.892;2023-07-30T00:31:29;99895.74;;;15.39;75.29
62928;BME280;51070;52.236;-0.892;2023-07-30T00:33:54;99894.72;;;15.37;75.69
62928;BME280;51070;52.236;-0.892;2023-07-30T00:36:20;99894.02;;;15.36;75.91
62928;BME280;51070;52.236;-0.892;2023-07-30T00:38:45;99896.61;;;15.34;75.90
62928;BME280;51070;52.236;-0.892;2023-07-30T00:41:10;99895.05;;;15.32;76.10
62928;BME280;51070;52.236;-0.892;2023-07-30T00:43:36;99896.98;;;15.32;76.15
62928;BME280;51070;52.236;-0.892;2023-07-30T00:46:02;99892.27;;;15.33;76.48
62928;BME280;51070;52.236;-0.892;2023-07-30T00:48:28;99891.56;;;15.34;76.47
62928;BME280;51070;52.236;-0.892;2023-07-30T00:50:53;99891.05;;;15.35;76.45
62928;BME280;51070;52.236;-0.892;2023-07-30T00:53:22;99895.75;;;15.36;76.54
62928;BME280;51070;52.236;-0.892;2023-07-30T00:55:48;99893.67;;;15.36;76.66
62928;BME280;51070;52.236;-0.892;2023-07-30T00:58:13;99894.02;;;15.35;76.75
62928;BME280;51070;52.236;-0.892;2023-07-30T01:00:40;99898.70;;;15.34;76.82
62928;BME280;51070;52.236;-0.892;2023-07-30T01:03:06;99901.14;;;15.34;76.79
62928;BME280;51070;52.236;-0.892;2023-07-30T01:05:31;99902.02;;;15.35;76.93
62928;BME280;51070;52.236;-0.892;2023-07-30T01:07:56;99901.49;;;15.35;76.98
62928;BME280;51070;52.236;-0.892;2023-07-30T01:10:22;99905.69;;;15.37;77.01
62928;BME280;51070;52.236;-0.892;2023-07-30T01:12:48;99908.46;;;15.39;76.98
62928;BME280;51070;52.236;-0.892;2023-07-30T01:15:14;99902.02;;;15.40;76.90
62928;BME280;51070;52.236;-0.892;2023-07-30T01:17:40;99905.16;;;15.41;77.08
62928;BME280;51070;52.236;-0.892;2023-07-30T01:20:07;99907.23;;;15.41;77.12
62928;BME280;51070;52.236;-0.892;2023-07-30T01:22:32;99902.19;;;15.40;77.21
62928;BME280;51070;52.236;-0.892;2023-07-30T01:24:57;99901.48;;;15.40;77.19
62928;BME280;51070;52.236;-0.892;2023-07-30T01:27:35;99901.67;;;15.38;77.32
62928;BME280;51070;52.236;-0.892;2023-07-30T01:30:08;99900.98;;;15.36;77.56
62928;BME280;51070;52.236;-0.892;2023-07-30T01:32:36;99902.02;;;15.35;77.94
62928;BME280;51070;52.236;-0.892;2023-07-30T01:35:03;99902.73;;;15.33;78.40
62928;BME280;51070;52.236;-0.892;2023-07-30T01:37:29;99903.93;;;15.29;78.95
62928;BME280;51070;52.236;-0.892;2023-07-30T01:39:56;99903.07;;;15.27;78.90
62928;BME280;51070;52.236;-0.892;2023-07-30T01:42:21;99903.93;;;15.24;79.46
62928;BME280;51070;52.236;-0.892;2023-07-30T01:44:47;99899.23;;;15.20;79.70
62928;BME280;51070;52.236;-0.892;2023-07-30T01:47:12;99902.88;;;15.17;79.95
62928;BME280;51070;52.236;-0.892;2023-07-30T01:49:37;99899.41;;;15.16;80.08
62928;BME280;51070;52.236;-0.892;2023-07-30T01:52:03;99900.46;;;15.16;80.28
62928;BME280;51070;52.236;-0.892;2023-07-30T01:54:29;99902.55;;;15.16;80.58
62928;BME280;51070;52.236;-0.892;2023-07-30T01:56:54;99899.59;;;15.16;80.82
62928;BME280;51070;52.236;-0.892;2023-07-30T01:59:19;99892.27;;;15.17;80.88
62928;BME280;51070;52.236;-0.892;2023-07-30T02:01:45;99896.45;;;15.16;81.22
62928;BME280;51070;52.236;-0.892;2023-07-30T02:04:10;99894.35;;;15.13;81.78
62928;BME280;51070;52.236;-0.892;2023-07-30T02:06:36;99897.48;;;15.13;81.65
62928;BME280;51070;52.236;-0.892;2023-07-30T02:09:01;99904.95;;;15.12;81.83
62928;BME280;51070;52.236;-0.892;2023-07-30T02:11:27;99906.88;;;15.12;82.21
62928;BME280;51070;52.236;-0.892;2023-07-30T02:13:53;99912.98;;;15.11;82.44
62928;BME280;51070;52.236;-0.892;2023-07-30T02:16:19;99909.67;;;15.10;82.32
62928;BME280;51070;52.236;-0.892;2023-07-30T02:18:44;99913.84;;;15.08;82.42
62928;BME280;51070;52.236;-0.892;2023-07-30T02:21:10;99917.14;;;15.04;82.39
62928;BME280;51070;52.236;-0.892;2023-07-30T02:23:35;99921.14;;;15.02;82.41
62928;BME280;51070;52.236;-0.892;2023-07-30T02:26:01;99921.30;;;15.02;82.50
62928;BME280;51070;52.236;-0.892;2023-07-30T02:28:26;99922.17;;;15.01;82.45
62928;BME280;51070;52.236;-0.892;2023-07-30T02:30:51;99921.48;;;15.01;82.47
62928;BME280;51070;52.236;-0.892;2023-07-30T02:33:17;99916.97;;;14.99;82.72
62928;BME280;51070;52.236;-0.892;2023-07-30T02:35:43;99916.61;;;14.98;82.86
62928;BME280;51070;52.236;-0.892;2023-07-30T02:38:09;99917.30;;;14.95;83.11
62928;BME280;51070;52.236;-0.892;2023-07-30T02:40:34;99921.30;;;14.93;83.42
62928;BME280;51070;52.236;-0.892;2023-07-30T02:43:00;99916.95;;;14.93;83.58
62928;BME280;51070;52.236;-0.892;2023-07-30T02:45:26;99920.95;;;14.90;83.75
62928;BME280;51070;52.236;-0.892;2023-07-30T02:47:51;99919.73;;;14.88;84.04
62928;BME280;51070;52.236;-0.892;2023-07-30T02:50:16;99922.68;;;14.87;84.16
62928;BME280;51070;52.236;-0.892;2023-07-30T02:52:42;99923.38;;;14.88;84.14
62928;BME280;51070;52.236;-0.892;2023-07-30T02:55:08;99924.60;;;14.90;84.12
62928;BME280;51070;52.236;-0.892;2023-07-30T02:57:33;99921.48;;;14.94;84.14
62928;BME280;51070;52.236;-0.892;2023-07-30T02:59:59;99917.14;;;14.97;84.32
62928;BME280;51070;52.236;-0.892;2023-07-30T03:02:24;99921.66;;;14.98;84.38
62928;BME280;51070;52.236;-0.892;2023-07-30T03:04:50;99924.27;;;15.01;84.23
62928;BME280;51070;52.236;-0.892;2023-07-30T03:07:15;99920.79;;;15.02;84.19
62928;BME280;51070;52.236;-0.892;2023-07-30T03:09:41;99920.27;;;15.01;84.42
62928;BME280;51070;52.236;-0.892;2023-07-30T03:12:07;99921.84;;;14.98;84.49
62928;BME280;51070;52.236;-0.892;2023-07-30T03:14:32;99917.64;;;14.96;84.46
62928;BME280;51070;52.236;-0.892;2023-07-30T03:16:58;99918.34;;;14.96;84.25
62928;BME280;51070;52.236;-0.892;2023-07-30T03:19:23;99918.52;;;14.98;84.09
62928;BME280;51070;52.236;-0.892;2023-07-30T03:21:48;99918.17;;;15.00;84.21
62928;BME280;51070;52.236;-0.892;2023-07-30T03:24:13;99918.70;;;15.01;84.10
62928;BME280;51070;52.236;-0.892;2023-07-30T03:26:39;99920.80;;;15.03;84.15
62928;BME280;51070;52.236;-0.892;2023-07-30T03:29:04;99926.73;;;15.05;83.87
62928;BME280;51070;52.236;-0.892;2023-07-30T03:31:30;99922.55;;;15.05;83.73
62928;BME280;51070;52.236;-0.892;2023-07-30T03:33:55;99923.93;;;15.06;83.75
62928;BME280;51070;52.236;-0.892;2023-07-30T03:36:20;99935.94;;;15.05;83.67
62928;BME280;51070;52.236;-0.892;2023-07-30T03:38:46;99932.80;;;15.07;83.57
62928;BME280;51070;52.236;-0.892;2023-07-30T03:41:11;99935.42;;;15.09;83.48
62928;BME280;51070;52.236;-0.892;2023-07-30T03:43:37;99939.25;;;15.12;83.43
62928;BME280;51070;52.236;-0.892;2023-07-30T03:46:02;99937.67;;;15.12;83.17
62928;BME280;51070;52.236;-0.892;2023-07-30T03:48:27;99937.50;;;15.12;83.29
62928;BME280;51070;52.236;-0.892;2023-07-30T03:50:54;99935.43;;;15.10;83.22
62928;BME280;51070;52.236;-0.892;2023-07-30T03:53:20;99936.47;;;15.09;83.55
62928;BME280;51070;52.236;-0.892;2023-07-30T03:55:46;99940.45;;;15.07;83.78
62928;BME280;51070;52.236;-0.892;2023-07-30T03:58:11;99935.23;;;15.08;84.17
62928;BME280;51070;52.236;-0.892;2023-07-30T04:00:37;99933.34;;;15.10;84.77
62928;BME280;51070;52.236;-0.892;2023-07-30T04:03:02;99927.06;;;15.08;85.41
62928;BME280;51070;52.236;-0.892;2023-07-30T04:05:29;99926.70;;;15.03;85.85
62928;BME280;51070;52.236;-0.892;2023-07-30T04:07:54;99926.89;;;14.99;86.10
62928;BME280;51070;52.236;-0.892;2023-07-30T04:10:19;99924.42;;;14.95;86.81
62928;BME280;51070;52.236;-0.892;2023-07-30T04:12:45;99918.34;;;14.90;87.41
62928;BME280;51070;52.236;-0.892;2023-07-30T04:15:10;99908.92;;;14.86;87.36
62928;BME280;51070;52.236;-0.892;2023-07-30T04:17:37;99909.80;;;14.83;87.19
62928;BME280;51070;52.236;-0.892;2023-07-30T04:20:03;99915.17;;;14.79;87.82
62928;BME280;51070;52.236;-0.892;2023-07-30T04:22:29;99908.04;;;14.75;87.80
62928;BME280;51070;52.236;-0.892;2023-07-30T04:24:55;99910.48;;;14.72;87.83
62928;BME280;51070;52.236;-0.892;2023-07-30T04:27:20;99913.77;;;14.68;87.83
62928;BME280;51070;52.236;-0.892;2023-07-30T04:29:46;99913.58;;;14.64;88.06
62928;BME280;51070;52.236;-0.892;2023-07-30T04:32:11;99915.48;;;14.60;88.03
62928;BME280;51070;52.236;-0.892;2023-07-30T04:34:36;99915.45;;;14.58;88.06
62928;BME280;51070;52.236;-0.892;2023-07-30T04:37:02;99922.77;;;14.58;88.07
62928;BME280;51070;52.236;-0.892;2023-07-30T04:39:29;99924.17;;;14.59;88.09
62928;BME280;51070;52.236;-0.892;2023-07-30T04:41:54;99928.53;;;14.61;88.05
62928;BME280;51070;52.236;-0.892;2023-07-30T04:44:19;99933.23;;;14.64;88.05
62928;BME280;51070;52.236;-0.892;2023-07-30T04:46:45;99933.05;;;14.64;88.15
62928;BME280;51070;52.236;-0.892;2023-07-30T04:49:11;99936.36;;;14.63;87.89
62928;BME280;51070;52.236;-0.892;2023-07-30T04:51:36;99938.09;;;14.61;88.12
62928;BME280;51070;52.236;-0.892;2023-07-30T04:54:02;99935.83;;;14.60;88.12
62928;BME280;51070;52.236;-0.892;2023-07-30T04:56:28;99942.08;;;14.59;88.23
62928;BME280;51070;52.236;-0.892;2023-07-30T04:58:53;99944.51;;;14.59;88.06
62928;BME280;51070;52.236;-0.892;2023-07-30T05:01:19;99946.42;;;14.60;88.10
62928;BME280;51070;52.236;-0.892;2023-07-30T05:03:44;99950.25;;;14.59;88.03
62928;BME280;51070;52.236;-0.892;2023-07-30T05:06:09;99950.94;;;14.59;88.00
62928;BME280;51070;52.236;-0.892;2023-07-30T05:08:35;99954.94;;;14.58;88.01
62928;BME280;51070;52.236;-0.892;2023-07-30T05:11:00;99956.33;;;14.58;88.04
62928;BME280;51070;52.236;-0.892;2023-07-30T05:13:25;99956.86;;;14.59;88.27
62928;BME280;51070;52.236;-0.892;2023-07-30T05:15:51;99956.34;;;14.60;88.38
62928;BME280;51070;52.236;-0.892;2023-07-30T05:18:16;99959.48;;;14.66;88.34
62928;BME280;51070;52.236;-0.892;2023-07-30T05:20:41;99959.70;;;14.75;88.22
62928;BME280;51070;52.236;-0.892;2023-07-30T05:23:07;99962.15;;;14.83;87.70
62928;BME280;51070;52.236;-0.892;2023-07-30T05:25:32;99960.09;;;14.91;87.57
62928;BME280;51070;52.236;-0.892;2023-07-30T05:27:58;99960.27;;;15.01;87.36
62928;BME280;51070;52.236;-0.892;2023-07-30T05:30:23;99963.61;;;15.11;87.15
62928;BME280;51070;52.236;-0.892;2023-07-30T05:32:48;99963.80;;;15.21;86.72
62928;BME280;51070;52.236;-0.892;2023-07-30T05:35:14;99965.89;;;15.21;86.50
62928;BME280;51070;52.236;-0.892;2023-07-30T05:37:40;99965.73;;;15.24;86.56
62928;BME280;51070;52.236;-0.892;2023-07-30T05:40:06;99968.87;;;15.34;86.33
62928;BME280;51070;52.236;-0.892;2023-07-30T05:42:32;99969.73;;;15.44;85.88
62928;BME280;51070;52.236;-0.892;2023-07-30T05:44:57;99975.14;;;15.49;85.67
62928;BME280;51070;52.236;-0.892;2023-07-30T05:47:22;99977.75;;;15.50;85.43
62928;BME280;51070;52.236;-0.892;2023-07-30T05:49:48;99980.74;;;15.52;85.43
62928;BME280;51070;52.236;-0.892;2023-07-30T05:52:13;99983.89;;;15.57;85.22
62928;BME280;51070;52.236;-0.892;2023-07-30T05:54:38;99984.77;;;15.61;85.00
62928;BME280;51070;52.236;-0.892;2023-07-30T05:57:05;99992.77;;;15.68;84.39
62928;BME280;51070;52.236;-0.892;2023-07-30T05:59:30;99986.15;;;15.80;84.08
62928;BME280;51070;52.236;-0.892;2023-07-30T06:01:56;99985.09;;;15.92;83.46
62928;BME280;51070;52.236;-0.892;2023-07-30T06:04:23;99985.77;;;16.04;82.93
62928;BME280;51070;52.236;-0.892;2023-07-30T06:06:48;99985.59;;;16.10;82.36
62928;BME280;51070;52.236;-0.892;2023-07-30T06:09:14;99989.39;;;16.24;81.59
62928;BME280;51070;52.236;-0.892;2023-07-30T06:11:39;99985.50;;;16.39;81.21
62928;BME280;51070;52.236;-0.892;2023-07-30T06:14:04;99987.91;;;16.51;80.79
62928;BME280;51070;52.236;-0.892;2023-07-30T06:16:30;99984.89;;;16.73;80.62
62928;BME280;51070;52.236;-0.892;2023-07-30T06:18:55;99988.45;;;16.94;79.83
62928;BME280;51070;52.236;-0.892;2023-07-30T06:21:20;99992.09;;;17.00;79.31
62928;BME280;51070;52.236;-0.892;2023-07-30T06:23:46;99989.63;;;17.02;78.92
62928;BME280;51070;52.236;-0.892;2023-07-30T06:26:11;99991.68;;;17.10;78.59
62928;BME280;51070;52.236;-0.892;2023-07-30T06:28:36;99990.59;;;17.17;78.27
62928;BME280;51070;52.236;-0.892;2023-07-30T06:31:02;99991.48;;;17.13;78.05
62928;BME280;51070;52.236;-0.892;2023-07-30T06:33:27;99994.50;;;17.05;77.93
62928;BME280;51070;52.236;-0.892;2023-07-30T06:35:53;99996.65;;;16.95;78.17
62928;BME280;51070;52.236;-0.892;2023-07-30T06:38:18;99993.55;;;16.88;78.32
62928;BME280;51070;52.236;-0.892;2023-07-30T06:40:43;99994.29;;;16.77;78.32
62928;BME280;51070;52.236;-0.892;2023-07-30T06:43:09;99991.72;;;16.68;78.77
62928;BME280;51070;52.236;-0.892;2023-07-30T06:45:34;99991.92;;;16.60;79.15
62928;BME280;51070;52.236;-0.892;2023-07-30T06:47:59;100005.88;;;16.54;79.62
62928;BME280;51070;52.236;-0.892;2023-07-30T06:50:25;99997.86;;;16.49;80.21
62928;BME280;51070;52.236;-0.892;2023-07-30T06:52:50;99999.27;;;16.43;80.89
62928;BME280;51070;52.236;-0.892;2023-07-30T06:55:15;100003.65;;;16.38;81.47
62928;BME280;51070;52.236;-0.892;2023-07-30T06:57:41;100006.27;;;16.36;81.67
62928;BME280;51070;52.236;-0.892;2023-07-30T07:00:07;100013.77;;;16.35;82.29
62928;BME280;51070;52.236;-0.892;2023-07-30T07:02:33;100007.86;;;16.34;83.05
62928;BME280;51070;52.236;-0.892;2023-07-30T07:04:58;100015.52;;;16.35;83.04
62928;BME280;51070;52.236;-0.892;2023-07-30T07:07:24;100016.58;;;16.33;83.10
62928;BME280;51070;52.236;-0.892;2023-07-30T07:09:49;100016.73;;;16.32;83.53
62928;BME280;51070;52.236;-0.892;2023-07-30T07:12:15;100008.02;;;16.38;83.80
62928;BME280;51070;52.236;-0.892;2023-07-30T07:14:40;100007.10;;;16.50;83.80
62928;BME280;51070;52.236;-0.892;2023-07-30T07:17:07;100013.19;;;17.88;82.14
62928;BME280;51070;52.236;-0.892;2023-07-30T07:19:32;100016.50;;;19.83;76.46
62928;BME280;51070;52.236;-0.892;2023-07-30T07:22:03;100021.23;;;20.13;74.54
62928;BME280;51070;52.236;-0.892;2023-07-30T07:24:29;100017.42;;;20.93;71.12
62928;BME280;51070;52.236;-0.892;2023-07-30T07:26:54;100021.17;;;20.99;69.05
62928;BME280;51070;52.236;-0.892;2023-07-30T07:29:19;100020.11;;;21.95;64.38
62928;BME280;51070;52.236;-0.892;2023-07-30T07:31:45;100016.34;;;24.07;59.47
62928;BME280;51070;52.236;-0.892;2023-07-30T07:34:10;100020.41;;;26.23;54.81
62928;BME280;51070;52.236;-0.892;2023-07-30T07:36:37;100020.85;;;27.90;49.96
62928;BME280;51070;52.236;-0.892;2023-07-30T07:39:03;100026.49;;;27.80;48.73
62928;BME280;51070;52.236;-0.892;2023-07-30T07:41:29;100025.58;;;27.03;48.02
62928;BME280;51070;52.236;-0.892;2023-07-30T07:43:54;100028.00;;;26.46;48.60
62928;BME280;51070;52.236;-0.892;2023-07-30T07:46:19;100031.99;;;26.06;47.55
62928;BME280;51070;52.236;-0.892;2023-07-30T07:48:45;100026.84;;;25.50;48.23
62928;BME280;51070;52.236;-0.892;2023-07-30T07:51:10;100030.02;;;25.00;48.21
62928;BME280;51070;52.236;-0.892;2023-07-30T07:53:37;100035.75;;;24.64;47.69
62928;BME280;51070;52.236;-0.892;2023-07-30T07:56:03;100039.60;;;24.70;47.19
62928;BME280;51070;52.236;-0.892;2023-07-30T07:58:29;100049.79;;;25.01;45.91
62928;BME280;51070;52.236;-0.892;2023-07-30T08:00:55;100042.95;;;25.09;45.16
62928;BME280;51070;52.236;-0.892;2023-07-30T08:03:21;100055.95;;;25.29;44.24
62928;BME280;51070;52.236;-0.892;2023-07-30T08:05:48;100060.94;;;25.47;43.62
62928;BME280;51070;52.236;-0.892;2023-07-30T08:08:13;100056.44;;;26.13;43.19
62928;BME280;51070;52.236;-0.892;2023-07-30T08:10:39;100057.42;;;27.16;41.26
62928;BME280;51070;52.236;-0.892;2023-07-30T08:13:07;100059.04;;;26.85;41.24
62928;BME280;51070;52.236;-0.892;2023-07-30T08:15:33;100059.29;;;27.45;39.34
62928;BME280;51070;52.236;-0.892;2023-07-30T08:17:58;100054.92;;;26.74;39.85
62928;BME280;51070;52.236;-0.892;2023-07-30T08:20:23;100054.31;;;27.33;39.14
62928;BME280;51070;52.236;-0.892;2023-07-30T08:22:49;100057.39;;;27.90;38.01
62928;BME280;51070;52.236;-0.892;2023-07-30T08:25:14;100051.13;;;29.96;35.28
62928;BME280;51070;52.236;-0.892;2023-07-30T08:27:39;100049.63;;;31.38;33.75
62928;BME280;51070;52.236;-0.892;2023-07-30T08:30:06;100059.20;;;31.80;32.83
62928;BME280;51070;52.236;-0.892;2023-07-30T08:32:33;100058.48;;;31.47;32.35
62928;BME280;51070;52.236;-0.892;2023-07-30T08:34:58;100056.12;;;30.53;33.32
62928;BME280;51070;52.236;-0.892;2023-07-30T08:37:24;100057.41;;;29.42;33.91
62928;BME280;51070;52.236;-0.892;2023-07-30T08:39:49;100052.83;;;28.97;34.56
62928;BME280;51070;52.236;-0.892;2023-07-30T08:42:14;100058.27;;;28.58;34.80
62928;BME280;51070;52.236;-0.892;2023-07-30T08:44:40;100054.52;;;29.24;34.19
62928;BME280;51070;52.236;-0.892;2023-07-30T08:47:05;100058.72;;;28.49;34.88
62928;BME280;51070;52.236;-0.892;2023-07-30T08:49:31;100066.05;;;27.70;35.87
62928;BME280;51070;52.236;-0.892;2023-07-30T08:51:58;100063.12;;;26.77;36.89
62928;BME280;51070;52.236;-0.892;2023-07-30T08:54:27;100064.33;;;26.03;38.18
62928;BME280;51070;52.236;-0.892;2023-07-30T08:56:54;100074.30;;;25.53;39.14
62928;BME280;51070;52.236;-0.892;2023-07-30T08:59:22;100069.11;;;25.14;39.10
62928;BME280;51070;52.236;-0.892;2023-07-30T09:01:51;100068.56;;;26.45;37.71
62928;BME280;51070;52.236;-0.892;2023-07-30T09:04:17;100072.13;;;26.11;37.50
62928;BME280;51070;52.236;-0.892;2023-07-30T09:06:44;100072.62;;;25.74;38.26
62928;BME280;51070;52.236;-0.892;2023-07-30T09:09:13;100077.81;;;25.17;39.15
62928;BME280;51070;52.236;-0.892;2023-07-30T09:11:39;100082.52;;;24.86;39.48
62928;BME280;51070;52.236;-0.892;2023-07-30T09:14:05;100088.76;;;24.33;40.54
62928;BME280;51070;52.236;-0.892;2023-07-30T09:16:31;100081.77;;;23.83;41.52
62928;BME280;51070;52.236;-0.892;2023-07-30T09:18:57;100085.02;;;23.53;41.51
62928;BME280;51070;52.236;-0.892;2023-07-30T09:21:32;100085.96;;;23.73;41.44
62928;BME280;51070;52.236;-0.892;2023-07-30T09:24:02;100080.59;;;23.92;41.56
62928;BME280;51070;52.236;-0.892;2023-07-30T09:26:40;100072.14;;;24.49;41.17
62928;BME280;51070;52.236;-0.892;2023-07-30T09:29:10;100070.65;;;24.71;41.00
62928;BME280;51070;52.236;-0.892;2023-07-30T09:31:49;100075.03;;;24.53;41.32
62928;BME280;51070;52.236;-0.892;2023-07-30T09:34:20;100088.94;;;24.23;41.86
62928;BME280;51070;52.236;-0.892;2023-07-30T09:36:47;100078.48;;;24.55;40.89
62928;BME280;51070;52.236;-0.892;2023-07-30T09:39:20;100079.98;;;24.92;40.91
62928;BME280;51070;52.236;-0.892;2023-07-30T09:41:46;100082.96;;;24.63;40.86
62928;BME280;51070;52.236;-0.892;2023-07-30T09:44:12;100089.55;;;24.26;41.32
62928;BME280;51070;52.236;-0.892;2023-07-30T09:46:46;100086.97;;;24.55;41.16
62928;BME280;51070;52.236;-0.892;2023-07-30T09:49:12;100083.73;;;24.71;40.88
62928;BME280;51070;52.236;-0.892;2023-07-30T09:51:38;100076.23;;;26.47;39.53
62928;BME280;51070;52.236;-0.892;2023-07-30T09:54:07;100080.02;;;27.45;37.67
62928;BME280;51070;52.236;-0.892;2023-07-30T09:56:37;100085.33;;;27.38;36.84
62928;BME280;51070;52.236;-0.892;2023-07-30T09:59:07;100087.16;;;26.82;36.02
62928;BME280;51070;52.236;-0.892;2023-07-30T10:01:38;100081.89;;;26.11;36.70
62928;BME280;51070;52.236;-0.892;2023-07-30T10:04:10;100088.02;;;25.37;38.12
62928;BME280;51070;52.236;-0.892;2023-07-30T10:09:17;100084.17;;;26.07;37.91
62928;BME280;51070;52.236;-0.892;2023-07-30T10:11:43;100088.95;;;26.03;38.21
62928;BME280;51070;52.236;-0.892;2023-07-30T10:14:10;100090.45;;;25.43;38.36
62928;BME280;51070;52.236;-0.892;2023-07-30T10:16:36;100093.60;;;24.77;39.19
62928;BME280;51070;52.236;-0.892;2023-07-30T10:19:02;100092.33;;;25.58;39.16
62928;BME280;51070;52.236;-0.892;2023-07-30T10:21:27;100092.46;;;26.03;38.88
62928;BME280;51070;52.236;-0.892;2023-07-30T10:24:01;100093.73;;;27.28;36.97
62928;BME280;51070;52.236;-0.892;2023-07-30T10:26:32;100085.91;;;28.28;35.10
62928;BME280;51070;52.236;-0.892;2023-07-30T10:29:19;100084.19;;;29.47;33.82
62928;BME280;51070;52.236;-0.892;2023-07-30T10:31:52;100079.33;;;29.96;32.95
62928;BME280;51070;52.236;-0.892;2023-07-30T10:34:19;100079.57;;;30.01;31.56
62928;BME280;51070;52.236;-0.892;2023-07-30T10:36:49;100082.48;;;29.75;31.69
62928;BME280;51070;52.236;-0.892;2023-07-30T10:39:19;100086.52;;;29.57;31.66
62928;BME280;51070;52.236;-0.892;2023-07-30T10:41:48;100086.95;;;29.62;32.31
62928;BME280;51070;52.236;-0.892;2023-07-30T10:44:18;100083.40;;;29.93;31.88
62928;BME280;51070;52.236;-0.892;2023-07-30T10:46:44;100085.17;;;29.87;31.55
62928;BME280;51070;52.236;-0.892;2023-07-30T10:49:10;100079.63;;;29.71;31.08
62928;BME280;51070;52.236;-0.892;2023-07-30T10:51:37;100074.67;;;29.03;32.26
62928;BME280;51070;52.236;-0.892;2023-07-30T10:54:06;100083.09;;;28.52;32.57
62928;BME280;51070;52.236;-0.892;2023-07-30T10:56:35;100091.05;;;27.78;32.81
62928;BME280;51070;52.236;-0.892;2023-07-30T10:59:03;100084.20;;;27.00;33.85
62928;BME280;51070;52.236;-0.892;2023-07-30T11:01:30;100083.54;;;26.56;34.82
62928;BME280;51070;52.236;-0.892;2023-07-30T11:03:56;100080.79;;;26.25;34.25
62928;BME280;51070;52.236;-0.892;2023-07-30T11:06:26;100086.50;;;26.27;35.10
62928;BME280;51070;52.236;-0.892;2023-07-30T11:08:52;100078.96;;;26.67;34.33
62928;BME280;51070;52.236;-0.892;2023-07-30T11:11:18;100076.84;;;26.59;33.53
62928;BME280;51070;52.236;-0.892;2023-07-30T11:13:46;100079.05;;;26.19;33.04
62928;BME280;51070;52.236;-0.892;2023-07-30T11:16:13;100075.08;;;25.70;33.84
62928;BME280;51070;52.236;-0.892;2023-07-30T11:18:40;100077.08;;;25.73;34.60
62928;BME280;51070;52.236;-0.892;2023-07-30T11:21:14;100078.34;;;25.72;34.80
62928;BME280;51070;52.236;-0.892;2023-07-30T11:23:42;100085.86;;;25.47;34.55
62928;BME280;51070;52.236;-0.892;2023-07-30T11:26:12;100087.08;;;25.62;34.57
62928;BME280;51070;52.236;-0.892;2023-07-30T11:28:39;100091.80;;;25.85;34.63
62928;BME280;51070;52.236;-0.892;2023-07-30T11:31:07;100082.92;;;25.86;34.51
62928;BME280;51070;52.236;-0.892;2023-07-30T11:33:35;100089.40;;;25.79;34.60
62928;BME280;51070;52.236;-0.892;2023-07-30T11:36:03;100081.98;;;25.51;35.10
62928;BME280;51070;52.236;-0.892;2023-07-30T11:38:29;100090.92;;;25.40;35.69
62928;BME280;51070;52.236;-0.892;2023-07-30T11:40:55;100093.33;;;25.28;36.32
62928;BME280;51070;52.236;-0.892;2023-07-30T11:43:22;100083.50;;;25.26;36.95
62928;BME280;51070;52.236;-0.892;2023-07-30T11:45:49;100079.20;;;25.23;36.97
62928;BME280;51070;52.236;-0.892;2023-07-30T11:48:15;100075.83;;;25.14;37.13
62928;BME280;51070;52.236;-0.892;2023-07-30T11:50:50;100086.20;;;24.91;37.67
62928;BME280;51070;52.236;-0.892;2023-07-30T11:53:17;100093.52;;;24.69;38.27
62928;BME280;51070;52.236;-0.892;2023-07-30T11:55:44;100104.97;;;24.50;38.39
62928;BME280;51070;52.236;-0.892;2023-07-30T11:58:11;100092.60;;;24.45;38.69
62928;BME280;51070;52.236;-0.892;2023-07-30T12:00:38;100087.81;;;24.36;39.63
62928;BME280;51070;52.236;-0.892;2023-07-30T12:03:10;100084.94;;;24.37;40.35
62928;BME280;51070;52.236;-0.892;2023-07-30T12:05:37;100090.73;;;24.27;40.75
62928;BME280;51070;52.236;-0.892;2023-07-30T12:08:04;100091.67;;;24.09;40.99
62928;BME280;51070;52.236;-0.892;2023-07-30T12:10:52;100090.42;;;23.99;41.49
62928;BME280;51070;52.236;-0.892;2023-07-30T12:13:19;100096.00;;;23.80;42.06
62928;BME280;51070;52.236;-0.892;2023-07-30T12:15:52;100096.20;;;23.68;43.36
62928;BME280;51070;52.236;-0.892;2023-07-30T12:18:18;100092.63;;;23.57;43.82
62928;BME280;51070;52.236;-0.892;2023-07-30T12:20:44;100089.65;;;23.52;44.43
62928;BME280;51070;52.236;-0.892;2023-07-30T12:23:10;100095.38;;;23.42;44.83
62928;BME280;51070;52.236;-0.892;2023-07-30T12:25:35;100097.05;;;23.33;45.26
62928;BME280;51070;52.236;-0.892;2023-07-30T12:28:01;100090.92;;;23.26;44.93
62928;BME280;51070;52.236;-0.892;2023-07-30T12:30:26;100096.63;;;23.24;46.03
62928;BME280;51070;52.236;-0.892;2023-07-30T12:32:53;100109.78;;;23.20;47.18
62928;BME280;51070;52.236;-0.892;2023-07-30T12:35:19;100106.48;;;23.00;48.78
62928;BME280;51070;52.236;-0.892;2023-07-30T12:37:44;100101.33;;;22.70;49.97
62928;BME280;51070;52.236;-0.892;2023-07-30T12:40:09;100108.12;;;22.39;51.07
62928;BME280;51070;52.236;-0.892;2023-07-30T12:42:35;100105.91;;;22.15;52.42
62928;BME280;51070;52.236;-0.892;2023-07-30T12:45:00;100100.45;;;21.86;53.48